sensor_id;sensor_type;location;lat;lon;timestamp;P1;durP1;ratioP1;P2;durP2;ratioP2
79452;SDS011;68899;52.116;5.404;2024-03-25T00:01:55;5.00;;;0.70;;
79452;SDS011;68899;52.116;5.404;2024-03-25T00:04:21;6.35;;;1.40;;
79452;SDS011;68899;52.116;5.404;2024-03-25T00:06:48;5.95;;;0.70;;
79452;SDS011;68899;52.116;5.404;2024-03-25T00:09:14;6.10;;;0.80;;
79452;SDS011;68899;52.116;5.404;2024-03-25T00:11:40;6.90;;;1.23;;
79452;SDS011;68899;52.116;5.404;2024-03-25T00:14:06;5.13;;;0.85;;
79452;SDS011;68899;52.116;5.404;2024-03-25T00:16:31;8.73;;;2.40;;
79452;SDS011;68899;52.116;5.404;2024-03-25T00:18:57;10.23;;;1.38;;
79452;SDS011;68899;52.116;5.404;2024-03-25T00:21:22;11.50;;;1.67;;
79452;SDS011;68899;52.116;5.404;2024-03-25T00:23:49;7.60;;;2.15;;
79452;SDS011;68899;52.116;5.404;2024-03-25T00:26:15;6.50;;;0.75;;
79452;SDS011;68899;52.116;5.404;2024-03-25T00:28:40;8.07;;;1.70;;
79452;SDS011;68899;52.116;5.404;2024-03-25T00:31:06;7.72;;;1.10;;
79452;SDS011;68899;52.116;5.404;2024-03-25T00:33:31;3.75;;;0.68;;
79452;SDS011;68899;52.116;5.404;2024-03-25T00:35:57;4.80;;;0.93;;
79452;SDS011;68899;52.116;5.404;2024-03-25T00:38:24;8.52;;;1.00;;
79452;SDS011;68899;52.116;5.404;2024-03-25T00:40:50;5.05;;;0.75;;
79452;SDS011;68899;52.116;5.404;2024-03-25T00:43:15;6.25;;;0.80;;
79452;SDS011;68899;52.116;5.404;2024-03-25T00:45:41;2.75;;;0.55;;
79452;SDS011;68899;52.116;5.404;2024-03-25T00:48:07;7.28;;;1.42;;
79452;SDS011;68899;52.116;5.404;2024-03-25T00:50:32;6.32;;;0.80;;
79452;SDS011;68899;52.116;5.404;2024-03-25T00:52:58;5.35;;;0.90;;
79452;SDS011;68899;52.116;5.404;2024-03-25T00:55:24;6.00;;;1.10;;
79452;SDS011;68899;52.116;5.404;2024-03-25T00:57:50;6.38;;;0.90;;
79452;SDS011;68899;52.116;5.404;2024-03-25T01:00:16;7.78;;;1.92;;
79452;SDS011;68899;52.116;5.404;2024-03-25T01:02:42;4.50;;;0.80;;
79452;SDS011;68899;52.116;5.404;2024-03-25T01:05:08;4.82;;;0.63;;
79452;SDS011;68899;52.116;5.404;2024-03-25T01:07:34;5.10;;;0.70;;
79452;SDS011;68899;52.116;5.404;2024-03-25T01:10:00;9.15;;;1.70;;
79452;SDS011;68899;52.116;5.404;2024-03-25T01:12:25;6.55;;;0.60;;
79452;SDS011;68899;52.116;5.404;2024-03-25T01:14:51;3.40;;;1.05;;
79452;SDS011;68899;52.116;5.404;2024-03-25T01:17:17;3.92;;;1.15;;
79452;SDS011;68899;52.116;5.404;2024-03-25T01:19:43;3.88;;;0.60;;
79452;SDS011;68899;52.116;5.404;2024-03-25T01:22:08;2.20;;;0.47;;
79452;SDS011;68899;52.116;5.404;2024-03-25T01:24:34;3.58;;;0.50;;
79452;SDS011;68899;52.116;5.404;2024-03-25T01:27:00;3.20;;;0.63;;
79452;SDS011;68899;52.116;5.404;2024-03-25T01:29:26;4.85;;;0.80;;
79452;SDS011;68899;52.116;5.404;2024-03-25T01:31:52;3.22;;;0.60;;
79452;SDS011;68899;52.116;5.404;2024-03-25T01:34:17;4.88;;;0.82;;
79452;SDS011;68899;52.116;5.404;2024-03-25T01:36:43;4.68;;;0.50;;
79452;SDS011;68899;52.116;5.404;2024-03-25T01:39:08;4.20;;;0.65;;
79452;SDS011;68899;52.116;5.404;2024-03-25T01:41:34;6.10;;;1.02;;
79452;SDS011;68899;52.116;5.404;2024-03-25T01:44:00;8.38;;;0.93;;
79452;SDS011;68899;52.116;5.404;2024-03-25T01:46:27;5.35;;;1.02;;
79452;SDS011;68899;52.116;5.404;2024-03-25T01:48:53;6.03;;;0.93;;
79452;SDS011;68899;52.116;5.404;2024-03-25T01:51:19;4.30;;;0.60;;
79452;SDS011;68899;52.116;5.404;2024-03-25T01:53:47;3.92;;;0.90;;
79452;SDS011;68899;52.116;5.404;2024-03-25T01:56:13;7.82;;;1.67;;
79452;SDS011;68899;52.116;5.404;2024-03-25T01:58:40;8.52;;;1.40;;
79452;SDS011;68899;52.116;5.404;2024-03-25T02:01:06;3.08;;;0.90;;
79452;SDS011;68899;52.116;5.404;2024-03-25T02:03:35;4.35;;;1.02;;
79452;SDS011;68899;52.116;5.404;2024-03-25T02:06:06;4.50;;;1.63;;
79452;SDS011;68899;52.116;5.404;2024-03-25T02:08:34;6.22;;;1.10;;
79452;SDS011;68899;52.116;5.404;2024-03-25T02:11:01;6.13;;;1.10;;
79452;SDS011;68899;52.116;5.404;2024-03-25T02:13:27;4.80;;;1.20;;
79452;SDS011;68899;52.116;5.404;2024-03-25T02:15:53;7.90;;;1.60;;
79452;SDS011;68899;52.116;5.404;2024-03-25T02:18:20;8.32;;;1.05;;
79452;SDS011;68899;52.116;5.404;2024-03-25T02:20:46;4.20;;;0.70;;
79452;SDS011;68899;52.116;5.404;2024-03-25T02:23:12;5.70;;;1.30;;
79452;SDS011;68899;52.116;5.404;2024-03-25T02:25:38;12.32;;;1.58;;
79452;SDS011;68899;52.116;5.404;2024-03-25T02:28:06;7.85;;;1.23;;
79452;SDS011;68899;52.116;5.404;2024-03-25T02:30:31;7.43;;;1.67;;
79452;SDS011;68899;52.116;5.404;2024-03-25T02:32:57;11.85;;;1.63;;
79452;SDS011;68899;52.116;5.404;2024-03-25T02:35:22;8.88;;;1.15;;
79452;SDS011;68899;52.116;5.404;2024-03-25T02:37:50;9.02;;;1.45;;
79452;SDS011;68899;52.116;5.404;2024-03-25T02:40:17;10.15;;;1.60;;
79452;SDS011;68899;52.116;5.404;2024-03-25T02:42:44;6.15;;;1.05;;
79452;SDS011;68899;52.116;5.404;2024-03-25T02:45:10;7.38;;;1.30;;
79452;SDS011;68899;52.116;5.404;2024-03-25T02:47:36;7.20;;;1.55;;
79452;SDS011;68899;52.116;5.404;2024-03-25T02:50:01;10.60;;;1.95;;
79452;SDS011;68899;52.116;5.404;2024-03-25T02:52:27;12.93;;;1.80;;
79452;SDS011;68899;52.116;5.404;2024-03-25T02:54:52;9.93;;;1.38;;
79452;SDS011;68899;52.116;5.404;2024-03-25T02:57:19;8.55;;;1.65;;
79452;SDS011;68899;52.116;5.404;2024-03-25T02:59:45;7.72;;;1.70;;
79452;SDS011;68899;52.116;5.404;2024-03-25T03:02:11;8.23;;;1.83;;
79452;SDS011;68899;52.116;5.404;2024-03-25T03:04:36;6.20;;;1.10;;
79452;SDS011;68899;52.116;5.404;2024-03-25T03:07:02;5.18;;;1.58;;
79452;SDS011;68899;52.116;5.404;2024-03-25T03:09:27;6.60;;;1.10;;
79452;SDS011;68899;52.116;5.404;2024-03-25T03:11:53;8.05;;;1.67;;
79452;SDS011;68899;52.116;5.404;2024-03-25T03:14:18;4.15;;;0.73;;
79452;SDS011;68899;52.116;5.404;2024-03-25T03:16:44;7.70;;;1.20;;
79452;SDS011;68899;52.116;5.404;2024-03-25T03:19:09;7.55;;;1.00;;
79452;SDS011;68899;52.116;5.404;2024-03-25T03:21:35;7.35;;;1.38;;
79452;SDS011;68899;52.116;5.404;2024-03-25T03:24:02;7.55;;;0.93;;
79452;SDS011;68899;52.116;5.404;2024-03-25T03:26:28;9.48;;;1.00;;
79452;SDS011;68899;52.116;5.404;2024-03-25T03:28:53;6.82;;;1.63;;
79452;SDS011;68899;52.116;5.404;2024-03-25T03:31:19;6.55;;;1.35;;
79452;SDS011;68899;52.116;5.404;2024-03-25T03:33:47;7.63;;;1.20;;
79452;SDS011;68899;52.116;5.404;2024-03-25T03:36:14;3.42;;;0.60;;
79452;SDS011;68899;52.116;5.404;2024-03-25T03:38:43;5.07;;;0.82;;
79452;SDS011;68899;52.116;5.404;2024-03-25T03:41:08;3.25;;;0.70;;
79452;SDS011;68899;52.116;5.404;2024-03-25T03:43:34;7.13;;;0.95;;
79452;SDS011;68899;52.116;5.404;2024-03-25T03:46:00;5.35;;;0.70;;
79452;SDS011;68899;52.116;5.404;2024-03-25T03:48:27;3.42;;;1.00;;
79452;SDS011;68899;52.116;5.404;2024-03-25T03:50:52;5.80;;;0.77;;
79452;SDS011;68899;52.116;5.404;2024-03-25T03:53:18;5.75;;;0.80;;
79452;SDS011;68899;52.116;5.404;2024-03-25T03:55:52;4.32;;;2.10;;
79452;SDS011;68899;52.116;5.404;2024-03-25T03:58:19;4.40;;;1.20;;
79452;SDS011;68899;52.116;5.404;2024-03-25T04:00:44;2.33;;;0.50;;
79452;SDS011;68899;52.116;5.404;2024-03-25T04:03:10;4.35;;;0.50;;
79452;SDS011;68899;52.116;5.404;2024-03-25T04:05:35;2.60;;;0.60;;
79452;SDS011;68899;52.116;5.404;2024-03-25T04:08:00;4.38;;;0.85;;
79452;SDS011;68899;52.116;5.404;2024-03-25T04:10:26;3.55;;;0.60;;
79452;SDS011;68899;52.116;5.404;2024-03-25T04:12:52;2.33;;;0.73;;
79452;SDS011;68899;52.116;5.404;2024-03-25T04:15:17;2.65;;;0.77;;
79452;SDS011;68899;52.116;5.404;2024-03-25T04:17:44;4.32;;;0.63;;
79452;SDS011;68899;52.116;5.404;2024-03-25T04:20:11;4.10;;;1.05;;
79452;SDS011;68899;52.116;5.404;2024-03-25T04:22:40;7.88;;;2.13;;
79452;SDS011;68899;52.116;5.404;2024-03-25T04:25:07;5.78;;;0.82;;
79452;SDS011;68899;52.116;5.404;2024-03-25T04:27:34;3.40;;;0.77;;
79452;SDS011;68899;52.116;5.404;2024-03-25T04:30:00;3.65;;;0.70;;
79452;SDS011;68899;52.116;5.404;2024-03-25T04:32:25;5.90;;;0.75;;
79452;SDS011;68899;52.116;5.404;2024-03-25T04:34:51;6.55;;;0.80;;
79452;SDS011;68899;52.116;5.404;2024-03-25T04:37:16;3.03;;;1.42;;
79452;SDS011;68899;52.116;5.404;2024-03-25T04:39:42;2.67;;;0.68;;
79452;SDS011;68899;52.116;5.404;2024-03-25T04:42:07;3.15;;;1.20;;
79452;SDS011;68899;52.116;5.404;2024-03-25T04:44:33;2.78;;;0.68;;
79452;SDS011;68899;52.116;5.404;2024-03-25T04:46:58;3.28;;;0.82;;
79452;SDS011;68899;52.116;5.404;2024-03-25T04:49:24;3.10;;;0.60;;
79452;SDS011;68899;52.116;5.404;2024-03-25T04:51:49;5.78;;;0.93;;
79452;SDS011;68899;52.116;5.404;2024-03-25T04:54:17;4.40;;;0.93;;
79452;SDS011;68899;52.116;5.404;2024-03-25T04:56:42;6.28;;;1.30;;
79452;SDS011;68899;52.116;5.404;2024-03-25T04:59:09;3.33;;;0.88;;
79452;SDS011;68899;52.116;5.404;2024-03-25T05:01:35;4.82;;;1.05;;
79452;SDS011;68899;52.116;5.404;2024-03-25T05:04:01;3.83;;;1.08;;
79452;SDS011;68899;52.116;5.404;2024-03-25T05:06:27;3.22;;;0.90;;
79452;SDS011;68899;52.116;5.404;2024-03-25T05:08:53;3.47;;;0.75;;
79452;SDS011;68899;52.116;5.404;2024-03-25T05:11:18;4.03;;;0.75;;
79452;SDS011;68899;52.116;5.404;2024-03-25T05:13:44;3.92;;;0.93;;
79452;SDS011;68899;52.116;5.404;2024-03-25T05:16:10;3.70;;;1.60;;
79452;SDS011;68899;52.116;5.404;2024-03-25T05:18:36;3.83;;;0.90;;
79452;SDS011;68899;52.116;5.404;2024-03-25T05:23:27;5.47;;;1.02;;
79452;SDS011;68899;52.116;5.404;2024-03-25T05:25:52;4.10;;;0.80;;
79452;SDS011;68899;52.116;5.404;2024-03-25T05:30:43;4.18;;;0.85;;
79452;SDS011;68899;52.116;5.404;2024-03-25T05:33:09;3.25;;;1.25;;
79452;SDS011;68899;52.116;5.404;2024-03-25T05:38:02;4.50;;;1.05;;
79452;SDS011;68899;52.116;5.404;2024-03-25T05:40:28;5.70;;;0.93;;
79452;SDS011;68899;52.116;5.404;2024-03-25T05:42:54;4.18;;;0.98;;
79452;SDS011;68899;52.116;5.404;2024-03-25T05:45:20;3.08;;;0.70;;
79452;SDS011;68899;52.116;5.404;2024-03-25T05:47:45;3.92;;;0.77;;
79452;SDS011;68899;52.116;5.404;2024-03-25T05:50:11;4.22;;;1.10;;
79452;SDS011;68899;52.116;5.404;2024-03-25T05:52:36;4.82;;;1.02;;
79452;SDS011;68899;52.116;5.404;2024-03-25T05:55:02;3.65;;;1.33;;
79452;SDS011;68899;52.116;5.404;2024-03-25T05:57:28;4.25;;;0.93;;
79452;SDS011;68899;52.116;5.404;2024-03-25T05:59:53;1.90;;;0.80;;
79452;SDS011;68899;52.116;5.404;2024-03-25T06:02:19;5.00;;;0.98;;
79452;SDS011;68899;52.116;5.404;2024-03-25T06:07:09;4.78;;;0.88;;
79452;SDS011;68899;52.116;5.404;2024-03-25T06:12:00;4.63;;;0.85;;
79452;SDS011;68899;52.116;5.404;2024-03-25T06:16:51;6.50;;;1.55;;
79452;SDS011;68899;52.116;5.404;2024-03-25T06:19:17;5.30;;;1.52;;
79452;SDS011;68899;52.116;5.404;2024-03-25T06:21:42;6.28;;;1.42;;
79452;SDS011;68899;52.116;5.404;2024-03-25T06:24:08;3.88;;;1.48;;
79452;SDS011;68899;52.116;5.404;2024-03-25T06:26:34;5.13;;;1.35;;
79452;SDS011;68899;52.116;5.404;2024-03-25T06:29:00;10.75;;;1.50;;
79452;SDS011;68899;52.116;5.404;2024-03-25T06:31:26;5.45;;;1.83;;
79452;SDS011;68899;52.116;5.404;2024-03-25T06:34:10;6.32;;;2.38;;
79452;SDS011;68899;52.116;5.404;2024-03-25T06:36:50;6.15;;;2.80;;
79452;SDS011;68899;52.116;5.404;2024-03-25T06:39:15;7.13;;;2.08;;
79452;SDS011;68899;52.116;5.404;2024-03-25T06:41:41;6.22;;;2.33;;
79452;SDS011;68899;52.116;5.404;2024-03-25T06:44:07;3.90;;;1.90;;
79452;SDS011;68899;52.116;5.404;2024-03-25T06:46:33;6.18;;;2.08;;
79452;SDS011;68899;52.116;5.404;2024-03-25T06:48:59;5.90;;;1.70;;
79452;SDS011;68899;52.116;5.404;2024-03-25T06:51:24;7.43;;;2.35;;
79452;SDS011;68899;52.116;5.404;2024-03-25T06:53:50;6.50;;;2.00;;
79452;SDS011;68899;52.116;5.404;2024-03-25T06:56:15;7.93;;;2.63;;
79452;SDS011;68899;52.116;5.404;2024-03-25T06:58:41;6.35;;;2.05;;
79452;SDS011;68899;52.116;5.404;2024-03-25T07:01:08;8.50;;;2.22;;
79452;SDS011;68899;52.116;5.404;2024-03-25T07:03:34;6.38;;;2.67;;
79452;SDS011;68899;52.116;5.404;2024-03-25T07:06:01;8.15;;;3.30;;
79452;SDS011;68899;52.116;5.404;2024-03-25T07:08:28;5.60;;;2.13;;
79452;SDS011;68899;52.116;5.404;2024-03-25T07:10:56;6.22;;;1.83;;
79452;SDS011;68899;52.116;5.404;2024-03-25T07:13:22;11.05;;;2.00;;
79452;SDS011;68899;52.116;5.404;2024-03-25T07:15:48;8.00;;;1.90;;
79452;SDS011;68899;52.116;5.404;2024-03-25T07:18:13;13.23;;;3.03;;
79452;SDS011;68899;52.116;5.404;2024-03-25T07:20:39;12.68;;;2.60;;
79452;SDS011;68899;52.116;5.404;2024-03-25T07:23:05;5.68;;;2.00;;
79452;SDS011;68899;52.116;5.404;2024-03-25T07:25:31;6.55;;;1.60;;
79452;SDS011;68899;52.116;5.404;2024-03-25T07:27:57;7.38;;;1.77;;
79452;SDS011;68899;52.116;5.404;2024-03-25T07:30:22;9.32;;;1.70;;
79452;SDS011;68899;52.116;5.404;2024-03-25T07:32:52;9.82;;;2.75;;
79452;SDS011;68899;52.116;5.404;2024-03-25T07:35:18;6.57;;;2.00;;
79452;SDS011;68899;52.116;5.404;2024-03-25T07:37:44;6.90;;;1.77;;
79452;SDS011;68899;52.116;5.404;2024-03-25T07:40:09;8.63;;;2.05;;
79452;SDS011;68899;52.116;5.404;2024-03-25T07:42:37;10.45;;;2.55;;
79452;SDS011;68899;52.116;5.404;2024-03-25T07:45:03;10.15;;;1.80;;
79452;SDS011;68899;52.116;5.404;2024-03-25T07:47:31;9.43;;;2.30;;
79452;SDS011;68899;52.116;5.404;2024-03-25T07:49:57;6.90;;;2.03;;
79452;SDS011;68899;52.116;5.404;2024-03-25T07:52:24;12.98;;;2.60;;
79452;SDS011;68899;52.116;5.404;2024-03-25T07:54:50;7.72;;;1.73;;
79452;SDS011;68899;52.116;5.404;2024-03-25T07:57:16;14.55;;;2.60;;
79452;SDS011;68899;52.116;5.404;2024-03-25T07:59:42;11.45;;;2.47;;
79452;SDS011;68899;52.116;5.404;2024-03-25T08:02:08;10.50;;;2.53;;
79452;SDS011;68899;52.116;5.404;2024-03-25T08:04:33;13.63;;;2.78;;
79452;SDS011;68899;52.116;5.404;2024-03-25T08:06:59;9.98;;;1.83;;
79452;SDS011;68899;52.116;5.404;2024-03-25T08:09:24;8.15;;;1.95;;
79452;SDS011;68899;52.116;5.404;2024-03-25T08:11:50;9.50;;;1.52;;
79452;SDS011;68899;52.116;5.404;2024-03-25T08:14:15;10.32;;;1.90;;
79452;SDS011;68899;52.116;5.404;2024-03-25T08:16:41;9.23;;;1.65;;
79452;SDS011;68899;52.116;5.404;2024-03-25T08:19:06;8.75;;;1.55;;
79452;SDS011;68899;52.116;5.404;2024-03-25T08:21:32;10.57;;;1.50;;
79452;SDS011;68899;52.116;5.404;2024-03-25T08:23:58;7.78;;;1.58;;
79452;SDS011;68899;52.116;5.404;2024-03-25T08:26:23;8.05;;;1.88;;
79452;SDS011;68899;52.116;5.404;2024-03-25T08:28:49;7.75;;;2.03;;
79452;SDS011;68899;52.116;5.404;2024-03-25T08:31:15;6.13;;;1.40;;
79452;SDS011;68899;52.116;5.404;2024-03-25T08:33:40;8.77;;;1.50;;
79452;SDS011;68899;52.116;5.404;2024-03-25T08:36:06;9.18;;;1.90;;
79452;SDS011;68899;52.116;5.404;2024-03-25T08:38:32;10.90;;;1.67;;
79452;SDS011;68899;52.116;5.404;2024-03-25T08:40:57;7.53;;;1.40;;
79452;SDS011;68899;52.116;5.404;2024-03-25T08:43:22;13.82;;;1.95;;
79452;SDS011;68899;52.116;5.404;2024-03-25T08:45:48;9.27;;;1.52;;
79452;SDS011;68899;52.116;5.404;2024-03-25T08:48:13;9.38;;;1.52;;
79452;SDS011;68899;52.116;5.404;2024-03-25T08:50:39;10.77;;;1.70;;
79452;SDS011;68899;52.116;5.404;2024-03-25T08:53:04;8.95;;;1.23;;
79452;SDS011;68899;52.116;5.404;2024-03-25T08:55:31;5.80;;;0.90;;
79452;SDS011;68899;52.116;5.404;2024-03-25T08:57:57;7.93;;;1.63;;
79452;SDS011;68899;52.116;5.404;2024-03-25T09:00:26;9.40;;;2.00;;
79452;SDS011;68899;52.116;5.404;2024-03-25T09:02:52;8.73;;;1.38;;
79452;SDS011;68899;52.116;5.404;2024-03-25T09:05:18;6.43;;;1.27;;
79452;SDS011;68899;52.116;5.404;2024-03-25T09:07:45;8.50;;;1.58;;
79452;SDS011;68899;52.116;5.404;2024-03-25T09:10:15;12.52;;;1.63;;
79452;SDS011;68899;52.116;5.404;2024-03-25T09:12:59;7.88;;;1.20;;
79452;SDS011;68899;52.116;5.404;2024-03-25T09:15:26;5.90;;;1.60;;
79452;SDS011;68899;52.116;5.404;2024-03-25T09:17:51;9.70;;;1.60;;
79452;SDS011;68899;52.116;5.404;2024-03-25T09:20:17;6.88;;;1.55;;
79452;SDS011;68899;52.116;5.404;2024-03-25T09:22:42;9.23;;;1.73;;
79452;SDS011;68899;52.116;5.404;2024-03-25T09:25:09;7.20;;;1.63;;
79452;SDS011;68899;52.116;5.404;2024-03-25T09:27:34;10.85;;;2.50;;
79452;SDS011;68899;52.116;5.404;2024-03-25T09:30:00;8.57;;;1.75;;
79452;SDS011;68899;52.116;5.404;2024-03-25T09:32:26;8.82;;;1.95;;
79452;SDS011;68899;52.116;5.404;2024-03-25T09:34:51;11.63;;;2.78;;
79452;SDS011;68899;52.116;5.404;2024-03-25T09:37:17;5.25;;;1.30;;
79452;SDS011;68899;52.116;5.404;2024-03-25T09:39:43;7.72;;;2.10;;
79452;SDS011;68899;52.116;5.404;2024-03-25T09:42:08;9.98;;;2.40;;
79452;SDS011;68899;52.116;5.404;2024-03-25T09:44:39;7.60;;;1.75;;
79452;SDS011;68899;52.116;5.404;2024-03-25T09:47:05;8.13;;;2.28;;
79452;SDS011;68899;52.116;5.404;2024-03-25T09:49:32;8.77;;;2.47;;
79452;SDS011;68899;52.116;5.404;2024-03-25T09:51:59;9.00;;;1.75;;
79452;SDS011;68899;52.116;5.404;2024-03-25T09:54:25;12.85;;;2.20;;
79452;SDS011;68899;52.116;5.404;2024-03-25T09:56:50;7.78;;;1.73;;
79452;SDS011;68899;52.116;5.404;2024-03-25T09:59:16;12.80;;;2.58;;
79452;SDS011;68899;52.116;5.404;2024-03-25T10:01:42;8.55;;;1.98;;
79452;SDS011;68899;52.116;5.404;2024-03-25T10:04:08;13.93;;;4.47;;
79452;SDS011;68899;52.116;5.404;2024-03-25T10:06:35;12.10;;;3.33;;
79452;SDS011;68899;52.116;5.404;2024-03-25T10:09:03;14.43;;;3.70;;
79452;SDS011;68899;52.116;5.404;2024-03-25T10:11:30;7.13;;;2.58;;
79452;SDS011;68899;52.116;5.404;2024-03-25T10:14:00;10.05;;;3.17;;
79452;SDS011;68899;52.116;5.404;2024-03-25T10:16:28;10.35;;;2.67;;
79452;SDS011;68899;52.116;5.404;2024-03-25T10:18:53;12.25;;;2.22;;
79452;SDS011;68899;52.116;5.404;2024-03-25T10:21:20;6.85;;;1.90;;
79452;SDS011;68899;52.116;5.404;2024-03-25T10:23:47;7.72;;;2.00;;
79452;SDS011;68899;52.116;5.404;2024-03-25T10:26:29;10.75;;;2.95;;
79452;SDS011;68899;52.116;5.404;2024-03-25T10:31:30;9.85;;;3.45;;
79452;SDS011;68899;52.116;5.404;2024-03-25T10:33:56;10.23;;;3.88;;
79452;SDS011;68899;52.116;5.404;2024-03-25T10:36:22;11.52;;;2.95;;
79452;SDS011;68899;52.116;5.404;2024-03-25T10:38:50;11.07;;;3.75;;
79452;SDS011;68899;52.116;5.404;2024-03-25T10:41:19;8.27;;;2.50;;
79452;SDS011;68899;52.116;5.404;2024-03-25T10:43:46;9.57;;;2.45;;
79452;SDS011;68899;52.116;5.404;2024-03-25T10:46:14;11.48;;;3.25;;
79452;SDS011;68899;52.116;5.404;2024-03-25T10:48:44;10.13;;;2.50;;
79452;SDS011;68899;52.116;5.404;2024-03-25T10:51:17;7.15;;;2.38;;
79452;SDS011;68899;52.116;5.404;2024-03-25T10:53:44;9.73;;;3.67;;
79452;SDS011;68899;52.116;5.404;2024-03-25T10:56:11;10.25;;;2.85;;
79452;SDS011;68899;52.116;5.404;2024-03-25T10:58:39;8.98;;;2.72;;
79452;SDS011;68899;52.116;5.404;2024-03-25T11:01:05;7.43;;;2.97;;
79452;SDS011;68899;52.116;5.404;2024-03-25T11:03:32;8.57;;;2.75;;
79452;SDS011;68899;52.116;5.404;2024-03-25T11:05:58;8.95;;;2.92;;
79452;SDS011;68899;52.116;5.404;2024-03-25T11:08:29;10.75;;;2.40;;
79452;SDS011;68899;52.116;5.404;2024-03-25T11:10:56;9.35;;;2.40;;
79452;SDS011;68899;52.116;5.404;2024-03-25T11:13:22;6.63;;;2.45;;
79452;SDS011;68899;52.116;5.404;2024-03-25T11:15:48;8.30;;;2.40;;
79452;SDS011;68899;52.116;5.404;2024-03-25T11:18:15;9.57;;;2.50;;
79452;SDS011;68899;52.116;5.404;2024-03-25T11:20:41;12.23;;;3.55;;
79452;SDS011;68899;52.116;5.404;2024-03-25T11:23:11;6.60;;;2.25;;
79452;SDS011;68899;52.116;5.404;2024-03-25T11:25:37;5.68;;;3.30;;
79452;SDS011;68899;52.116;5.404;2024-03-25T11:28:04;4.65;;;2.35;;
79452;SDS011;68899;52.116;5.404;2024-03-25T11:30:30;7.55;;;3.00;;
79452;SDS011;68899;52.116;5.404;2024-03-25T11:32:56;7.97;;;2.67;;
79452;SDS011;68899;52.116;5.404;2024-03-25T11:35:23;10.15;;;2.75;;
79452;SDS011;68899;52.116;5.404;2024-03-25T11:37:49;9.98;;;4.63;;
79452;SDS011;68899;52.116;5.404;2024-03-25T11:40:17;8.10;;;3.33;;
79452;SDS011;68899;52.116;5.404;2024-03-25T11:42:43;7.32;;;3.33;;
79452;SDS011;68899;52.116;5.404;2024-03-25T11:45:17;8.15;;;3.20;;
79452;SDS011;68899;52.116;5.404;2024-03-25T11:47:44;9.70;;;3.53;;
79452;SDS011;68899;52.116;5.404;2024-03-25T11:50:14;6.70;;;2.58;;
79452;SDS011;68899;52.116;5.404;2024-03-25T11:52:41;6.65;;;2.63;;
79452;SDS011;68899;52.116;5.404;2024-03-25T11:55:08;6.25;;;3.03;;
79452;SDS011;68899;52.116;5.404;2024-03-25T11:57:35;7.65;;;3.72;;
79452;SDS011;68899;52.116;5.404;2024-03-25T12:00:01;8.15;;;3.47;;
79452;SDS011;68899;52.116;5.404;2024-03-25T12:02:31;7.30;;;3.10;;
79452;SDS011;68899;52.116;5.404;2024-03-25T12:04:57;7.55;;;3.42;;
79452;SDS011;68899;52.116;5.404;2024-03-25T12:07:23;9.00;;;3.00;;
79452;SDS011;68899;52.116;5.404;2024-03-25T12:09:49;6.50;;;2.88;;
79452;SDS011;68899;52.116;5.404;2024-03-25T12:12:33;6.68;;;2.78;;
79452;SDS011;68899;52.116;5.404;2024-03-25T12:15:00;9.13;;;3.15;;
79452;SDS011;68899;52.116;5.404;2024-03-25T12:17:28;9.77;;;2.95;;
79452;SDS011;68899;52.116;5.404;2024-03-25T12:22:31;5.85;;;3.13;;
79452;SDS011;68899;52.116;5.404;2024-03-25T12:25:02;6.63;;;2.65;;
79452;SDS011;68899;52.116;5.404;2024-03-25T12:27:32;6.38;;;3.17;;
79452;SDS011;68899;52.116;5.404;2024-03-25T12:32:30;5.75;;;2.45;;
79452;SDS011;68899;52.116;5.404;2024-03-25T12:34:57;5.60;;;3.00;;
79452;SDS011;68899;52.116;5.404;2024-03-25T12:37:25;6.95;;;2.40;;
79452;SDS011;68899;52.116;5.404;2024-03-25T12:39:51;6.40;;;2.30;;
79452;SDS011;68899;52.116;5.404;2024-03-25T12:42:17;5.93;;;2.47;;
79452;SDS011;68899;52.116;5.404;2024-03-25T12:44:43;8.07;;;2.20;;
79452;SDS011;68899;52.116;5.404;2024-03-25T12:47:09;5.45;;;2.47;;
79452;SDS011;68899;52.116;5.404;2024-03-25T12:49:34;5.55;;;2.67;;
79452;SDS011;68899;52.116;5.404;2024-03-25T12:52:00;5.82;;;2.35;;
79452;SDS011;68899;52.116;5.404;2024-03-25T12:54:25;7.07;;;1.75;;
79452;SDS011;68899;52.116;5.404;2024-03-25T12:56:51;3.60;;;1.48;;
79452;SDS011;68899;52.116;5.404;2024-03-25T12:59:16;5.68;;;1.70;;
79452;SDS011;68899;52.116;5.404;2024-03-25T13:01:42;4.53;;;1.65;;
79452;SDS011;68899;52.116;5.404;2024-03-25T13:04:07;4.07;;;1.48;;
79452;SDS011;68899;52.116;5.404;2024-03-25T13:06:33;4.80;;;1.83;;
79452;SDS011;68899;52.116;5.404;2024-03-25T13:08:59;6.78;;;2.35;;
79452;SDS011;68899;52.116;5.404;2024-03-25T13:11:24;4.78;;;1.83;;
79452;SDS011;68899;52.116;5.404;2024-03-25T13:13:51;5.68;;;2.22;;
79452;SDS011;68899;52.116;5.404;2024-03-25T13:16:17;4.75;;;1.45;;
79452;SDS011;68899;52.116;5.404;2024-03-25T13:18:42;3.50;;;1.02;;
79452;SDS011;68899;52.116;5.404;2024-03-25T13:21:08;2.88;;;1.00;;
79452;SDS011;68899;52.116;5.404;2024-03-25T13:23:33;5.63;;;2.13;;
79452;SDS011;68899;52.116;5.404;2024-03-25T13:25:59;4.75;;;2.00;;
79452;SDS011;68899;52.116;5.404;2024-03-25T13:28:24;4.15;;;1.42;;
79452;SDS011;68899;52.116;5.404;2024-03-25T13:30:50;5.43;;;1.88;;
79452;SDS011;68899;52.116;5.404;2024-03-25T13:33:16;4.35;;;1.45;;
79452;SDS011;68899;52.116;5.404;2024-03-25T13:35:41;5.50;;;1.40;;
79452;SDS011;68899;52.116;5.404;2024-03-25T13:38:07;7.53;;;2.10;;
79452;SDS011;68899;52.116;5.404;2024-03-25T13:40:32;6.40;;;2.60;;
79452;SDS011;68899;52.116;5.404;2024-03-25T13:42:58;6.05;;;2.20;;
79452;SDS011;68899;52.116;5.404;2024-03-25T13:45:23;6.30;;;2.30;;
79452;SDS011;68899;52.116;5.404;2024-03-25T13:47:49;5.90;;;2.25;;
79452;SDS011;68899;52.116;5.404;2024-03-25T13:50:15;5.85;;;2.00;;
79452;SDS011;68899;52.116;5.404;2024-03-25T13:52:40;6.97;;;2.08;;
79452;SDS011;68899;52.116;5.404;2024-03-25T13:55:06;6.22;;;2.22;;
79452;SDS011;68899;52.116;5.404;2024-03-25T13:57:31;7.97;;;2.17;;
79452;SDS011;68899;52.116;5.404;2024-03-25T13:59:57;4.45;;;1.30;;
79452;SDS011;68899;52.116;5.404;2024-03-25T14:02:23;4.20;;;1.30;;
79452;SDS011;68899;52.116;5.404;2024-03-25T14:04:49;3.95;;;1.20;;
79452;SDS011;68899;52.116;5.404;2024-03-25T14:07:14;2.70;;;1.08;;
79452;SDS011;68899;52.116;5.404;2024-03-25T14:09:40;5.60;;;1.65;;
79452;SDS011;68899;52.116;5.404;2024-03-25T14:12:05;5.60;;;1.80;;
79452;SDS011;68899;52.116;5.404;2024-03-25T14:14:31;4.45;;;1.92;;
79452;SDS011;68899;52.116;5.404;2024-03-25T14:16:56;8.60;;;2.42;;
79452;SDS011;68899;52.116;5.404;2024-03-25T14:19:22;4.57;;;1.88;;
79452;SDS011;68899;52.116;5.404;2024-03-25T14:21:48;3.80;;;1.30;;
79452;SDS011;68899;52.116;5.404;2024-03-25T14:24:14;4.60;;;1.63;;
79452;SDS011;68899;52.116;5.404;2024-03-25T14:26:39;4.05;;;1.60;;
79452;SDS011;68899;52.116;5.404;2024-03-25T14:29:05;4.90;;;1.52;;
79452;SDS011;68899;52.116;5.404;2024-03-25T14:31:31;7.05;;;1.83;;
79452;SDS011;68899;52.116;5.404;2024-03-25T14:33:57;5.60;;;1.92;;
79452;SDS011;68899;52.116;5.404;2024-03-25T14:36:23;3.47;;;1.42;;
79452;SDS011;68899;52.116;5.404;2024-03-25T14:38:49;6.10;;;2.50;;
79452;SDS011;68899;52.116;5.404;2024-03-25T14:41:18;6.35;;;1.83;;
79452;SDS011;68899;52.116;5.404;2024-03-25T14:43:45;4.90;;;2.17;;
79452;SDS011;68899;52.116;5.404;2024-03-25T14:46:10;4.38;;;2.05;;
79452;SDS011;68899;52.116;5.404;2024-03-25T14:48:36;4.55;;;1.70;;
79452;SDS011;68899;52.116;5.404;2024-03-25T14:51:02;6.22;;;1.90;;
79452;SDS011;68899;52.116;5.404;2024-03-25T14:53:27;4.63;;;1.75;;
79452;SDS011;68899;52.116;5.404;2024-03-25T14:55:53;3.75;;;1.55;;
79452;SDS011;68899;52.116;5.404;2024-03-25T14:58:18;4.88;;;1.63;;
79452;SDS011;68899;52.116;5.404;2024-03-25T15:00:44;5.78;;;1.50;;
79452;SDS011;68899;52.116;5.404;2024-03-25T15:03:09;4.63;;;1.45;;